sensor_id;sensor_type;location;lat;lon;timestamp;P1;durP1;ratioP1;P2;durP2;ratioP2
23009;SDS011;11671;49.990;8.028;2023-06-22T00:00:50;8.45;;;6.03;;
23009;SDS011;11671;49.990;8.028;2023-06-22T00:03:17;6.45;;;5.07;;
23009;SDS011;11671;49.990;8.028;2023-06-22T00:05:44;7.80;;;5.55;;
23009;SDS011;11671;49.990;8.028;2023-06-22T00:08:11;7.88;;;5.32;;
23009;SDS011;11671;49.990;8.028;2023-06-22T00:10:37;6.03;;;4.85;;
23009;SDS011;11671;49.990;8.028;2023-06-22T00:13:05;11.35;;;5.60;;
23009;SDS011;11671;49.990;8.028;2023-06-22T00:15:31;9.27;;;5.85;;
23009;SDS011;11671;49.990;8.028;2023-06-22T00:17:57;9.50;;;6.43;;
23009;SDS011;11671;49.990;8.028;2023-06-22T00:20:23;7.05;;;5.38;;
23009;SDS011;11671;49.990;8.028;2023-06-22T00:22:59;9.52;;;5.65;;
23009;SDS011;11671;49.990;8.028;2023-06-22T00:25:25;8.38;;;6.78;;
23009;SDS011;11671;49.990;8.028;2023-06-22T00:27:51;8.68;;;5.75;;
23009;SDS011;11671;49.990;8.028;2023-06-22T00:30:17;9.23;;;5.45;;
23009;SDS011;11671;49.990;8.028;2023-06-22T00:32:43;9.65;;;6.57;;
23009;SDS011;11671;49.990;8.028;2023-06-22T00:35:11;10.82;;;6.78;;
23009;SDS011;11671;49.990;8.028;2023-06-22T00:37:37;8.43;;;6.10;;
23009;SDS011;11671;49.990;8.028;2023-06-22T00:40:07;8.85;;;6.50;;
23009;SDS011;11671;49.990;8.028;2023-06-22T00:42:36;10.98;;;7.32;;
23009;SDS011;11671;49.990;8.028;2023-06-22T00:45:03;9.15;;;6.18;;
23009;SDS011;11671;49.990;8.028;2023-06-22T00:47:30;11.35;;;6.95;;
23009;SDS011;11671;49.990;8.028;2023-06-22T00:49:55;8.85;;;6.03;;
23009;SDS011;11671;49.990;8.028;2023-06-22T00:52:21;12.68;;;6.95;;
23009;SDS011;11671;49.990;8.028;2023-06-22T00:54:52;9.43;;;6.82;;
23009;SDS011;11671;49.990;8.028;2023-06-22T00:57:19;11.57;;;7.05;;
23009;SDS011;11671;49.990;8.028;2023-06-22T00:59:46;12.20;;;7.47;;
23009;SDS011;11671;49.990;8.028;2023-06-22T01:02:13;16.52;;;8.00;;
23009;SDS011;11671;49.990;8.028;2023-06-22T01:07:10;11.32;;;8.13;;
23009;SDS011;11671;49.990;8.028;2023-06-22T01:10:07;10.00;;;8.10;;
23009;SDS011;11671;49.990;8.028;2023-06-22T01:12:43;12.48;;;8.75;;
23009;SDS011;11671;49.990;8.028;2023-06-22T01:15:14;14.10;;;8.07;;
23009;SDS011;11671;49.990;8.028;2023-06-22T01:17:44;9.63;;;7.25;;
23009;SDS011;11671;49.990;8.028;2023-06-22T01:20:12;8.43;;;7.30;;
23009;SDS011;11671;49.990;8.028;2023-06-22T01:22:46;10.77;;;7.97;;
23009;SDS011;11671;49.990;8.028;2023-06-22T01:25:20;12.48;;;8.13;;
23009;SDS011;11671;49.990;8.028;2023-06-22T01:28:03;10.85;;;7.70;;
23009;SDS011;11671;49.990;8.028;2023-06-22T01:30:40;13.70;;;7.72;;
23009;SDS011;11671;49.990;8.028;2023-06-22T01:33:07;15.40;;;8.50;;
23009;SDS011;11671;49.990;8.028;2023-06-22T01:35:38;9.80;;;7.28;;
23009;SDS011;11671;49.990;8.028;2023-06-22T01:38:05;13.05;;;8.27;;
23009;SDS011;11671;49.990;8.028;2023-06-22T01:40:31;12.90;;;8.52;;
23009;SDS011;11671;49.990;8.028;2023-06-22T01:42:59;11.05;;;8.10;;
23009;SDS011;11671;49.990;8.028;2023-06-22T01:45:27;10.98;;;8.57;;
23009;SDS011;11671;49.990;8.028;2023-06-22T01:47:53;12.25;;;8.18;;
23009;SDS011;11671;49.990;8.028;2023-06-22T01:50:20;11.05;;;8.48;;
23009;SDS011;11671;49.990;8.028;2023-06-22T01:52:46;11.52;;;9.50;;
23009;SDS011;11671;49.990;8.028;2023-06-22T01:57:38;13.60;;;9.10;;
23009;SDS011;11671;49.990;8.028;2023-06-22T02:00:04;15.73;;;9.63;;
23009;SDS011;11671;49.990;8.028;2023-06-22T02:02:54;14.77;;;9.50;;
23009;SDS011;11671;49.990;8.028;2023-06-22T02:10:35;16.42;;;10.43;;
23009;SDS011;11671;49.990;8.028;2023-06-22T02:13:04;11.30;;;9.18;;
23009;SDS011;11671;49.990;8.028;2023-06-22T02:15:31;12.23;;;8.57;;
23009;SDS011;11671;49.990;8.028;2023-06-22T02:20:23;12.80;;;9.93;;
23009;SDS011;11671;49.990;8.028;2023-06-22T02:22:49;16.17;;;10.30;;
23009;SDS011;11671;49.990;8.028;2023-06-22T02:25:17;13.77;;;9.45;;
23009;SDS011;11671;49.990;8.028;2023-06-22T02:27:43;17.58;;;10.05;;
23009;SDS011;11671;49.990;8.028;2023-06-22T02:32:35;12.20;;;9.48;;
23009;SDS011;11671;49.990;8.028;2023-06-22T02:35:01;15.43;;;9.98;;
23009;SDS011;11671;49.990;8.028;2023-06-22T02:37:31;17.85;;;10.57;;
23009;SDS011;11671;49.990;8.028;2023-06-22T02:39:57;13.27;;;9.93;;
23009;SDS011;11671;49.990;8.028;2023-06-22T02:44:48;18.67;;;11.50;;
23009;SDS011;11671;49.990;8.028;2023-06-22T02:49:39;15.50;;;10.73;;
23009;SDS011;11671;49.990;8.028;2023-06-22T02:54:30;16.40;;;9.85;;
23009;SDS011;11671;49.990;8.028;2023-06-22T02:56:58;12.95;;;9.52;;
23009;SDS011;11671;49.990;8.028;2023-06-22T03:01:49;13.73;;;10.38;;
23009;SDS011;11671;49.990;8.028;2023-06-22T03:06:41;15.68;;;10.98;;
23009;SDS011;11671;49.990;8.028;2023-06-22T03:09:06;13.05;;;10.15;;
23009;SDS011;11671;49.990;8.028;2023-06-22T03:11:33;16.40;;;10.50;;
23009;SDS011;11671;49.990;8.028;2023-06-22T03:13:59;14.45;;;8.90;;
23009;SDS011;11671;49.990;8.028;2023-06-22T03:16:26;15.60;;;9.90;;
23009;SDS011;11671;49.990;8.028;2023-06-22T03:21:18;14.57;;;10.02;;
23009;SDS011;11671;49.990;8.028;2023-06-22T03:23:44;15.95;;;9.93;;
23009;SDS011;11671;49.990;8.028;2023-06-22T03:28:36;14.50;;;10.52;;
23009;SDS011;11671;49.990;8.028;2023-06-22T03:31:03;12.45;;;9.18;;
23009;SDS011;11671;49.990;8.028;2023-06-22T03:33:29;14.60;;;10.70;;
23009;SDS011;11671;49.990;8.028;2023-06-22T03:38:20;15.45;;;9.50;;
23009;SDS011;11671;49.990;8.028;2023-06-22T03:43:11;14.18;;;10.30;;
23009;SDS011;11671;49.990;8.028;2023-06-22T03:48:02;12.00;;;10.23;;
23009;SDS011;11671;49.990;8.028;2023-06-22T03:52:54;14.33;;;11.13;;
23009;SDS011;11671;49.990;8.028;2023-06-22T03:57:46;15.30;;;9.52;;
23009;SDS011;11671;49.990;8.028;2023-06-22T04:00:12;15.10;;;10.43;;
23009;SDS011;11671;49.990;8.028;2023-06-22T04:02:38;13.80;;;9.57;;
23009;SDS011;11671;49.990;8.028;2023-06-22T04:07:29;18.70;;;9.95;;
23009;SDS011;11671;49.990;8.028;2023-06-22T04:12:20;13.15;;;10.30;;
23009;SDS011;11671;49.990;8.028;2023-06-22T04:14:46;12.45;;;9.98;;
23009;SDS011;11671;49.990;8.028;2023-06-22T04:17:11;16.83;;;10.45;;
23009;SDS011;11671;49.990;8.028;2023-06-22T04:19:39;15.52;;;9.15;;
23009;SDS011;11671;49.990;8.028;2023-06-22T04:24:32;14.20;;;10.50;;
23009;SDS011;11671;49.990;8.028;2023-06-22T04:26:58;15.13;;;10.18;;
23009;SDS011;11671;49.990;8.028;2023-06-22T04:29:27;16.30;;;11.02;;
23009;SDS011;11671;49.990;8.028;2023-06-22T04:31:55;15.57;;;10.50;;
23009;SDS011;11671;49.990;8.028;2023-06-22T04:34:23;23.38;;;11.20;;
23009;SDS011;11671;49.990;8.028;2023-06-22T04:36:53;12.82;;;9.85;;
23009;SDS011;11671;49.990;8.028;2023-06-22T04:41:44;13.15;;;10.20;;
23009;SDS011;11671;49.990;8.028;2023-06-22T04:46:49;12.90;;;9.80;;
23009;SDS011;11671;49.990;8.028;2023-06-22T04:49:33;14.40;;;9.65;;
23009;SDS011;11671;49.990;8.028;2023-06-22T04:52:03;15.57;;;10.75;;
23009;SDS011;11671;49.990;8.028;2023-06-22T04:54:30;13.95;;;11.05;;
23009;SDS011;11671;49.990;8.028;2023-06-22T04:57:02;15.10;;;10.52;;
23009;SDS011;11671;49.990;8.028;2023-06-22T04:59:30;13.75;;;10.50;;
23009;SDS011;11671;49.990;8.028;2023-06-22T05:01:57;15.65;;;10.60;;
23009;SDS011;11671;49.990;8.028;2023-06-22T05:04:23;14.38;;;11.30;;
23009;SDS011;11671;49.990;8.028;2023-06-22T05:06:50;16.45;;;10.90;;
23009;SDS011;11671;49.990;8.028;2023-06-22T05:09:16;12.90;;;10.02;;
23009;SDS011;11671;49.990;8.028;2023-06-22T05:14:08;13.85;;;10.25;;
23009;SDS011;11671;49.990;8.028;2023-06-22T05:16:34;14.48;;;10.23;;
23009;SDS011;11671;49.990;8.028;2023-06-22T05:18:59;12.73;;;10.45;;
23009;SDS011;11671;49.990;8.028;2023-06-22T05:21:28;15.07;;;10.20;;
23009;SDS011;11671;49.990;8.028;2023-06-22T05:23:54;13.00;;;10.40;;
23009;SDS011;11671;49.990;8.028;2023-06-22T05:26:20;13.00;;;9.57;;
23009;SDS011;11671;49.990;8.028;2023-06-22T05:28:46;10.32;;;8.85;;
23009;SDS011;11671;49.990;8.028;2023-06-22T05:31:16;10.07;;;8.73;;
23009;SDS011;11671;49.990;8.028;2023-06-22T05:33:42;12.65;;;9.15;;
23009;SDS011;11671;49.990;8.028;2023-06-22T05:36:08;11.45;;;9.07;;
23009;SDS011;11671;49.990;8.028;2023-06-22T05:38:35;10.48;;;8.60;;
23009;SDS011;11671;49.990;8.028;2023-06-22T05:41:01;11.38;;;9.02;;
23009;SDS011;11671;49.990;8.028;2023-06-22T05:43:27;9.88;;;8.15;;
23009;SDS011;11671;49.990;8.028;2023-06-22T05:45:53;10.55;;;8.40;;
23009;SDS011;11671;49.990;8.028;2023-06-22T05:48:19;12.02;;;8.40;;
23009;SDS011;11671;49.990;8.028;2023-06-22T05:50:45;10.23;;;8.40;;
23009;SDS011;11671;49.990;8.028;2023-06-22T05:53:10;9.77;;;8.25;;
23009;SDS011;11671;49.990;8.028;2023-06-22T05:55:36;13.40;;;10.07;;
23009;SDS011;11671;49.990;8.028;2023-06-22T05:58:02;12.13;;;9.27;;
23009;SDS011;11671;49.990;8.028;2023-06-22T06:00:30;11.25;;;8.80;;
23009;SDS011;11671;49.990;8.028;2023-06-22T06:02:56;10.18;;;9.15;;
23009;SDS011;11671;49.990;8.028;2023-06-22T06:05:22;13.13;;;8.85;;
23009;SDS011;11671;49.990;8.028;2023-06-22T06:07:50;15.48;;;9.20;;
23009;SDS011;11671;49.990;8.028;2023-06-22T06:10:16;13.52;;;9.73;;
23009;SDS011;11671;49.990;8.028;2023-06-22T06:12:42;15.07;;;8.95;;
23009;SDS011;11671;49.990;8.028;2023-06-22T06:15:07;10.30;;;8.85;;
23009;SDS011;11671;49.990;8.028;2023-06-22T06:17:33;10.75;;;8.70;;
23009;SDS011;11671;49.990;8.028;2023-06-22T06:20:00;9.40;;;8.45;;
23009;SDS011;11671;49.990;8.028;2023-06-22T06:22:26;12.43;;;9.23;;
23009;SDS011;11671;49.990;8.028;2023-06-22T06:24:51;14.00;;;10.15;;
23009;SDS011;11671;49.990;8.028;2023-06-22T06:27:17;13.25;;;8.45;;
23009;SDS011;11671;49.990;8.028;2023-06-22T06:29:43;8.68;;;7.80;;
23009;SDS011;11671;49.990;8.028;2023-06-22T06:32:10;17.25;;;9.52;;
23009;SDS011;11671;49.990;8.028;2023-06-22T06:34:37;11.43;;;9.05;;
23009;SDS011;11671;49.990;8.028;2023-06-22T06:37:02;10.13;;;8.77;;
23009;SDS011;11671;49.990;8.028;2023-06-22T06:39:28;12.55;;;8.82;;
23009;SDS011;11671;49.990;8.028;2023-06-22T06:41:54;13.43;;;8.55;;
23009;SDS011;11671;49.990;8.028;2023-06-22T06:44:19;13.15;;;8.82;;
23009;SDS011;11671;49.990;8.028;2023-06-22T06:46:46;10.88;;;8.85;;
23009;SDS011;11671;49.990;8.028;2023-06-22T06:49:11;10.52;;;8.68;;
23009;SDS011;11671;49.990;8.028;2023-06-22T06:51:38;13.65;;;8.57;;
23009;SDS011;11671;49.990;8.028;2023-06-22T06:54:04;10.63;;;8.90;;
23009;SDS011;11671;49.990;8.028;2023-06-22T06:56:29;15.18;;;9.95;;
23009;SDS011;11671;49.990;8.028;2023-06-22T06:58:55;15.95;;;9.65;;
23009;SDS011;11671;49.990;8.028;2023-06-22T07:01:20;13.70;;;9.35;;
23009;SDS011;11671;49.990;8.028;2023-06-22T07:03:46;9.85;;;8.85;;
23009;SDS011;11671;49.990;8.028;2023-06-22T07:06:13;11.13;;;8.63;;
23009;SDS011;11671;49.990;8.028;2023-06-22T07:08:38;12.50;;;9.27;;
23009;SDS011;11671;49.990;8.028;2023-06-22T07:11:04;12.30;;;8.98;;
23009;SDS011;11671;49.990;8.028;2023-06-22T07:13:30;14.70;;;8.32;;
23009;SDS011;11671;49.990;8.028;2023-06-22T07:15:56;12.65;;;8.55;;
23009;SDS011;11671;49.990;8.028;2023-06-22T07:18:21;10.15;;;8.55;;
23009;SDS011;11671;49.990;8.028;2023-06-22T07:20:47;10.25;;;8.48;;
23009;SDS011;11671;49.990;8.028;2023-06-22T07:23:13;10.05;;;8.07;;
23009;SDS011;11671;49.990;8.028;2023-06-22T07:25:39;10.00;;;8.07;;
23009;SDS011;11671;49.990;8.028;2023-06-22T07:28:05;11.20;;;7.60;;
23009;SDS011;11671;49.990;8.028;2023-06-22T07:30:32;10.85;;;8.32;;
23009;SDS011;11671;49.990;8.028;2023-06-22T07:32:58;10.75;;;8.20;;
23009;SDS011;11671;49.990;8.028;2023-06-22T07:35:28;9.20;;;7.53;;
23009;SDS011;11671;49.990;8.028;2023-06-22T07:37:54;12.38;;;7.43;;
23009;SDS011;11671;49.990;8.028;2023-06-22T07:40:20;9.43;;;8.23;;
23009;SDS011;11671;49.990;8.028;2023-06-22T07:42:46;10.27;;;8.10;;
23009;SDS011;11671;49.990;8.028;2023-06-22T07:45:13;9.90;;;7.57;;
23009;SDS011;11671;49.990;8.028;2023-06-22T07:47:39;15.30;;;7.55;;
23009;SDS011;11671;49.990;8.028;2023-06-22T07:50:05;7.90;;;7.05;;
23009;SDS011;11671;49.990;8.028;2023-06-22T07:52:31;8.93;;;7.97;;
23009;SDS011;11671;49.990;8.028;2023-06-22T07:54:57;8.82;;;7.88;;
23009;SDS011;11671;49.990;8.028;2023-06-22T07:57:23;8.90;;;7.35;;
23009;SDS011;11671;49.990;8.028;2023-06-22T07:59:56;14.13;;;7.68;;
23009;SDS011;11671;49.990;8.028;2023-06-22T08:02:24;17.30;;;9.60;;
23009;SDS011;11671;49.990;8.028;2023-06-22T08:04:49;9.85;;;7.78;;
23009;SDS011;11671;49.990;8.028;2023-06-22T08:07:15;10.90;;;8.98;;
23009;SDS011;11671;49.990;8.028;2023-06-22T08:09:42;9.13;;;7.40;;
23009;SDS011;11671;49.990;8.028;2023-06-22T08:12:12;9.73;;;8.45;;
23009;SDS011;11671;49.990;8.028;2023-06-22T08:14:38;9.52;;;8.52;;
23009;SDS011;11671;49.990;8.028;2023-06-22T08:17:04;10.15;;;8.27;;
23009;SDS011;11671;49.990;8.028;2023-06-22T08:19:30;11.20;;;7.90;;
23009;SDS011;11671;49.990;8.028;2023-06-22T08:21:56;11.45;;;8.98;;
23009;SDS011;11671;49.990;8.028;2023-06-22T08:24:22;10.00;;;8.57;;
23009;SDS011;11671;49.990;8.028;2023-06-22T08:26:49;10.60;;;7.78;;
23009;SDS011;11671;49.990;8.028;2023-06-22T08:29:16;9.40;;;8.50;;
23009;SDS011;11671;49.990;8.028;2023-06-22T08:31:42;10.43;;;8.50;;
23009;SDS011;11671;49.990;8.028;2023-06-22T08:34:07;11.38;;;9.07;;
23009;SDS011;11671;49.990;8.028;2023-06-22T08:36:33;9.30;;;8.40;;
23009;SDS011;11671;49.990;8.028;2023-06-22T08:39:02;11.15;;;8.90;;
23009;SDS011;11671;49.990;8.028;2023-06-22T08:41:29;10.02;;;8.98;;
23009;SDS011;11671;49.990;8.028;2023-06-22T08:43:54;11.93;;;9.60;;
23009;SDS011;11671;49.990;8.028;2023-06-22T08:46:20;10.32;;;8.73;;
23009;SDS011;11671;49.990;8.028;2023-06-22T08:48:49;10.18;;;8.20;;
23009;SDS011;11671;49.990;8.028;2023-06-22T08:51:15;14.35;;;9.27;;
23009;SDS011;11671;49.990;8.028;2023-06-22T08:53:42;10.27;;;8.45;;
23009;SDS011;11671;49.990;8.028;2023-06-22T08:56:08;9.30;;;7.72;;
23009;SDS011;11671;49.990;8.028;2023-06-22T08:58:33;10.63;;;9.32;;
23009;SDS011;11671;49.990;8.028;2023-06-22T09:00:59;12.45;;;8.65;;
23009;SDS011;11671;49.990;8.028;2023-06-22T09:03:26;11.70;;;8.38;;
23009;SDS011;11671;49.990;8.028;2023-06-22T09:05:52;23.15;;;8.02;;
23009;SDS011;11671;49.990;8.028;2023-06-22T09:08:17;11.90;;;8.57;;
23009;SDS011;11671;49.990;8.028;2023-06-22T09:10:43;13.80;;;9.00;;
23009;SDS011;11671;49.990;8.028;2023-06-22T09:13:08;10.07;;;8.65;;
23009;SDS011;11671;49.990;8.028;2023-06-22T09:15:34;14.80;;;9.80;;
23009;SDS011;11671;49.990;8.028;2023-06-22T09:18:00;12.82;;;8.38;;
23009;SDS011;11671;49.990;8.028;2023-06-22T09:20:26;11.77;;;8.85;;
23009;SDS011;11671;49.990;8.028;2023-06-22T09:22:51;10.55;;;8.15;;
23009;SDS011;11671;49.990;8.028;2023-06-22T09:25:17;10.73;;;8.38;;
23009;SDS011;11671;49.990;8.028;2023-06-22T09:27:45;10.43;;;8.20;;
23009;SDS011;11671;49.990;8.028;2023-06-22T09:30:11;11.18;;;8.98;;
23009;SDS011;11671;49.990;8.028;2023-06-22T09:32:37;12.50;;;9.43;;
23009;SDS011;11671;49.990;8.028;2023-06-22T09:35:03;12.35;;;9.95;;
23009;SDS011;11671;49.990;8.028;2023-06-22T09:37:34;11.88;;;9.43;;
23009;SDS011;11671;49.990;8.028;2023-06-22T09:40:00;13.05;;;9.27;;
23009;SDS011;11671;49.990;8.028;2023-06-22T09:42:25;10.70;;;8.90;;
23009;SDS011;11671;49.990;8.028;2023-06-22T09:44:51;10.35;;;8.43;;
23009;SDS011;11671;49.990;8.028;2023-06-22T09:47:17;11.40;;;9.07;;
23009;SDS011;11671;49.990;8.028;2023-06-22T09:49:42;10.45;;;8.55;;
23009;SDS011;11671;49.990;8.028;2023-06-22T09:52:08;10.45;;;8.77;;
23009;SDS011;11671;49.990;8.028;2023-06-22T09:54:34;12.00;;;9.23;;
23009;SDS011;11671;49.990;8.028;2023-06-22T09:56:59;13.95;;;9.48;;
23009;SDS011;11671;49.990;8.028;2023-06-22T09:59:25;11.85;;;9.00;;
23009;SDS011;11671;49.990;8.028;2023-06-22T10:01:51;11.77;;;9.15;;
23009;SDS011;11671;49.990;8.028;2023-06-22T10:04:16;10.10;;;9.10;;
23009;SDS011;11671;49.990;8.028;2023-06-22T10:06:42;10.15;;;9.07;;
23009;SDS011;11671;49.990;8.028;2023-06-22T10:09:08;12.02;;;9.32;;
23009;SDS011;11671;49.990;8.028;2023-06-22T10:11:33;15.55;;;8.88;;
23009;SDS011;11671;49.990;8.028;2023-06-22T10:14:00;11.10;;;8.50;;
23009;SDS011;11671;49.990;8.028;2023-06-22T10:16:32;10.80;;;9.65;;
23009;SDS011;11671;49.990;8.028;2023-06-22T10:19:00;13.45;;;10.05;;
23009;SDS011;11671;49.990;8.028;2023-06-22T10:21:26;11.60;;;9.63;;
23009;SDS011;11671;49.990;8.028;2023-06-22T10:23:54;11.00;;;9.02;;
23009;SDS011;11671;49.990;8.028;2023-06-22T10:26:20;10.82;;;9.20;;
23009;SDS011;11671;49.990;8.028;2023-06-22T10:28:46;12.57;;;9.30;;
23009;SDS011;11671;49.990;8.028;2023-06-22T10:31:11;11.32;;;9.43;;
23009;SDS011;11671;49.990;8.028;2023-06-22T10:33:37;12.23;;;8.82;;
23009;SDS011;11671;49.990;8.028;2023-06-22T10:36:03;10.32;;;9.25;;
23009;SDS011;11671;49.990;8.028;2023-06-22T10:38:29;12.90;;;9.57;;
23009;SDS011;11671;49.990;8.028;2023-06-22T10:40:55;11.32;;;8.52;;
23009;SDS011;11671;49.990;8.028;2023-06-22T10:43:20;9.07;;;7.20;;
23009;SDS011;11671;49.990;8.028;2023-06-22T10:45:46;9.73;;;7.32;;
23009;SDS011;11671;49.990;8.028;2023-06-22T10:48:12;9.75;;;7.05;;
23009;SDS011;11671;49.990;8.028;2023-06-22T10:50:37;11.95;;;7.10;;
23009;SDS011;11671;49.990;8.028;2023-06-22T10:53:03;10.23;;;7.38;;
23009;SDS011;11671;49.990;8.028;2023-06-22T10:55:28;9.65;;;7.35;;
23009;SDS011;11671;49.990;8.028;2023-06-22T10:57:54;10.52;;;8.20;;
23009;SDS011;11671;49.990;8.028;2023-06-22T11:00:20;10.90;;;7.85;;
23009;SDS011;11671;49.990;8.028;2023-06-22T11:02:46;9.75;;;7.60;;
23009;SDS011;11671;49.990;8.028;2023-06-22T11:05:12;11.52;;;7.10;;
23009;SDS011;11671;49.990;8.028;2023-06-22T11:07:41;9.70;;;7.95;;
23009;SDS011;11671;49.990;8.028;2023-06-22T11:10:07;8.52;;;7.47;;
23009;SDS011;11671;49.990;8.028;2023-06-22T11:12:33;8.82;;;7.10;;
23009;SDS011;11671;49.990;8.028;2023-06-22T11:14:59;8.93;;;7.30;;
23009;SDS011;11671;49.990;8.028;2023-06-22T11:17:24;9.43;;;7.53;;
23009;SDS011;11671;49.990;8.028;2023-06-22T11:19:50;12.48;;;7.72;;
23009;SDS011;11671;49.990;8.028;2023-06-22T11:22:16;11.93;;;6.97;;
23009;SDS011;11671;49.990;8.028;2023-06-22T11:24:41;8.68;;;6.55;;
23009;SDS011;11671;49.990;8.028;2023-06-22T11:27:07;8.25;;;6.43;;
23009;SDS011;11671;49.990;8.028;2023-06-22T11:29:32;12.25;;;7.68;;
23009;SDS011;11671;49.990;8.028;2023-06-22T11:31:58;10.77;;;7.60;;
23009;SDS011;11671;49.990;8.028;2023-06-22T11:34:23;12.38;;;7.90;;
23009;SDS011;11671;49.990;8.028;2023-06-22T11:36:49;11.35;;;6.68;;
23009;SDS011;11671;49.990;8.028;2023-06-22T11:39:15;15.23;;;7.00;;
23009;SDS011;11671;49.990;8.028;2023-06-22T11:41:41;12.45;;;7.15;;
23009;SDS011;11671;49.990;8.028;2023-06-22T11:44:07;11.35;;;7.22;;
23009;SDS011;11671;49.990;8.028;2023-06-22T11:46:33;11.07;;;7.03;;
23009;SDS011;11671;49.990;8.028;2023-06-22T11:48:59;9.27;;;6.57;;
23009;SDS011;11671;49.990;8.028;2023-06-22T11:51:27;11.05;;;6.78;;
23009;SDS011;11671;49.990;8.028;2023-06-22T11:53:53;13.93;;;7.90;;
23009;SDS011;11671;49.990;8.028;2023-06-22T11:56:19;12.10;;;7.55;;
23009;SDS011;11671;49.990;8.028;2023-06-22T11:58:44;9.55;;;7.15;;
23009;SDS011;11671;49.990;8.028;2023-06-22T12:01:10;11.65;;;7.07;;
23009;SDS011;11671;49.990;8.028;2023-06-22T12:03:38;9.32;;;6.65;;
23009;SDS011;11671;49.990;8.028;2023-06-22T12:06:04;11.93;;;7.25;;
23009;SDS011;11671;49.990;8.028;2023-06-22T12:08:29;10.50;;;7.38;;
23009;SDS011;11671;49.990;8.028;2023-06-22T12:10:55;13.40;;;7.07;;
23009;SDS011;11671;49.990;8.028;2023-06-22T12:13:21;10.23;;;6.90;;
23009;SDS011;11671;49.990;8.028;2023-06-22T12:15:47;9.57;;;6.93;;
23009;SDS011;11671;49.990;8.028;2023-06-22T12:18:12;10.30;;;7.03;;
23009;SDS011;11671;49.990;8.028;2023-06-22T12:20:40;8.45;;;7.28;;
23009;SDS011;11671;49.990;8.028;2023-06-22T12:23:05;9.82;;;6.20;;
23009;SDS011;11671;49.990;8.028;2023-06-22T12:25:31;11.07;;;6.60;;
23009;SDS011;11671;49.990;8.028;2023-06-22T12:27:56;13.75;;;6.28;;
23009;SDS011;11671;49.990;8.028;2023-06-22T12:30:22;12.90;;;6.50;;
23009;SDS011;11671;49.990;8.028;2023-06-22T12:32:48;9.57;;;6.38;;
23009;SDS011;11671;49.990;8.028;2023-06-22T12:35:14;8.23;;;6.18;;
23009;SDS011;11671;49.990;8.028;2023-06-22T12:37:40;9.60;;;6.57;;
23009;SDS011;11671;49.990;8.028;2023-06-22T12:40:10;10.65;;;6.38;;
23009;SDS011;11671;49.990;8.028;2023-06-22T12:42:36;12.05;;;6.25;;
23009;SDS011;11671;49.990;8.028;2023-06-22T12:45:01;15.13;;;7.22;;
23009;SDS011;11671;49.990;8.028;2023-06-22T12:47:27;11.93;;;6.97;;
23009;SDS011;11671;49.990;8.028;2023-06-22T12:49:52;16.10;;;6.35;;
23009;SDS011;11671;49.990;8.028;2023-06-22T12:52:18;10.23;;;6.65;;
23009;SDS011;11671;49.990;8.028;2023-06-22T12:54:44;14.00;;;7.03;;
23009;SDS011;11671;49.990;8.028;2023-06-22T12:57:10;13.52;;;6.95;;
23009;SDS011;11671;49.990;8.028;2023-06-22T12:59:35;19.00;;;7.18;;
23009;SDS011;11671;49.990;8.028;2023-06-22T13:02:01;12.55;;;6.53;;
23009;SDS011;11671;49.990;8.028;2023-06-22T13:04:26;11.05;;;7.03;;
23009;SDS011;11671;49.990;8.028;2023-06-22T13:06:52;10.85;;;7.50;;
23009;SDS011;11671;49.990;8.028;2023-06-22T13:09:18;14.20;;;6.65;;
23009;SDS011;11671;49.990;8.028;2023-06-22T13:11:44;11.63;;;7.10;;
23009;SDS011;11671;49.990;8.028;2023-06-22T13:14:10;14.52;;;7.35;;
23009;SDS011;11671;49.990;8.028;2023-06-22T13:16:35;11.15;;;7.20;;
23009;SDS011;11671;49.990;8.028;2023-06-22T13:19:01;15.45;;;6.45;;
23009;SDS011;11671;49.990;8.028;2023-06-22T13:21:27;9.23;;;6.60;;
23009;SDS011;11671;49.990;8.028;2023-06-22T13:23:53;14.50;;;6.90;;
23009;SDS011;11671;49.990;8.028;2023-06-22T13:26:18;11.27;;;7.15;;
23009;SDS011;11671;49.990;8.028;2023-06-22T13:28:44;11.32;;;7.00;;
23009;SDS011;11671;49.990;8.028;2023-06-22T13:31:09;14.40;;;7.25;;
23009;SDS011;11671;49.990;8.028;2023-06-22T13:33:35;9.73;;;6.78;;
23009;SDS011;11671;49.990;8.028;2023-06-22T13:36:02;14.80;;;6.47;;
23009;SDS011;11671;49.990;8.028;2023-06-22T13:38:28;10.80;;;6.25;;
23009;SDS011;11671;49.990;8.028;2023-06-22T13:40:55;9.57;;;5.70;;
23009;SDS011;11671;49.990;8.028;2023-06-22T13:43:23;13.23;;;5.18;;
23009;SDS011;11671;49.990;8.028;2023-06-22T13:45:49;10.63;;;5.35;;
23009;SDS011;11671;49.990;8.028;2023-06-22T13:48:15;13.18;;;5.65;;
23009;SDS011;11671;49.990;8.028;2023-06-22T13:50:40;13.90;;;5.40;;
23009;SDS011;11671;49.990;8.028;2023-06-22T13:53:06;10.82;;;5.38;;
23009;SDS011;11671;49.990;8.028;2023-06-22T13:55:31;9.88;;;5.55;;
23009;SDS011;11671;49.990;8.028;2023-06-22T13:57:57;11.68;;;6.63;;
23009;SDS011;11671;49.990;8.028;2023-06-22T14:00:23;11.05;;;5.43;;
23009;SDS011;11671;49.990;8.028;2023-06-22T14:02:48;21.00;;;5.68;;
23009;SDS011;11671;49.990;8.028;2023-06-22T14:05:14;14.32;;;5.95;;
23009;SDS011;11671;49.990;8.028;2023-06-22T14:07:40;10.88;;;5.18;;
23009;SDS011;11671;49.990;8.028;2023-06-22T14:10:05;12.32;;;5.25;;
23009;SDS011;11671;49.990;8.028;2023-06-22T14:12:31;11.65;;;5.40;;
23009;SDS011;11671;49.990;8.028;2023-06-22T14:14:57;11.95;;;5.57;;
23009;SDS011;11671;49.990;8.028;2023-06-22T14:17:23;12.43;;;5.75;;
23009;SDS011;11671;49.990;8.028;2023-06-22T14:19:51;10.55;;;4.80;;
23009;SDS011;11671;49.990;8.028;2023-06-22T14:22:21;14.20;;;5.50;;
23009;SDS011;11671;49.990;8.028;2023-06-22T14:24:47;13.07;;;6.05;;
23009;SDS011;11671;49.990;8.028;2023-06-22T14:27:14;11.90;;;5.43;;
23009;SDS011;11671;49.990;8.028;2023-06-22T14:29:40;12.30;;;5.97;;
23009;SDS011;11671;49.990;8.028;2023-06-22T14:32:06;13.75;;;5.28;;
23009;SDS011;11671;49.990;8.028;2023-06-22T14:34:32;16.48;;;6.13;;
23009;SDS011;11671;49.990;8.028;2023-06-22T14:37:01;11.52;;;5.20;;
23009;SDS011;11671;49.990;8.028;2023-06-22T14:39:27;12.30;;;5.18;;
23009;SDS011;11671;49.990;8.028;2023-06-22T14:41:53;12.80;;;4.80;;
23009;SDS011;11671;49.990;8.028;2023-06-22T14:44:19;12.25;;;4.63;;
23009;SDS011;11671;49.990;8.028;2023-06-22T14:46:44;17.73;;;5.20;;
23009;SDS011;11671;49.990;8.028;2023-06-22T14:49:10;15.43;;;5.03;;
23009;SDS011;11671;49.990;8.028;2023-06-22T14:51:36;19.73;;;5.15;;
23009;SDS011;11671;49.990;8.028;2023-06-22T14:54:01;19.75;;;5.72;;
23009;SDS011;11671;49.990;8.028;2023-06-22T14:56:27;19.42;;;5.07;;
23009;SDS011;11671;49.990;8.028;2023-06-22T14:58:52;16.50;;;4.43;;
23009;SDS011;11671;49.990;8.028;2023-06-22T15:01:18;10.15;;;4.72;;
23009;SDS011;11671;49.990;8.028;2023-06-22T15:03:44;12.43;;;4.95;;
23009;SDS011;11671;49.990;8.028;2023-06-22T15:06:10;16.08;;;5.15;;
23009;SDS011;11671;49.990;8.028;2023-06-22T15:08:39;19.80;;;6.00;;
23009;SDS011;11671;49.990;8.028;2023-06-22T15:11:06;15.65;;;4.80;;
23009;SDS011;11671;49.990;8.028;2023-06-22T15:13:31;13.40;;;4.43;;
23009;SDS011;11671;49.990;8.028;2023-06-22T15:15:59;12.48;;;5.57;;
23009;SDS011;11671;49.990;8.028;2023-06-22T15:18:30;13.00;;;4.20;;
23009;SDS011;11671;49.990;8.028;2023-06-22T15:20:58;13.88;;;4.97;;
23009;SDS011;11671;49.990;8.028;2023-06-22T15:23:26;13.93;;;4.93;;
23009;SDS011;11671;49.990;8.028;2023-06-22T15:25:53;11.70;;;4.63;;
23009;SDS011;11671;49.990;8.028;2023-06-22T15:28:22;13.38;;;4.60;;
23009;SDS011;11671;49.990;8.028;2023-06-22T15:30:49;25.23;;;5.13;;